sensor_id;sensor_type;location;lat;lon;timestamp;P1;durP1;ratioP1;P2;durP2;ratioP2
13795;SDS011;40911;51.552;9.874;2023-03-21T00:06:36;12.20;;;6.53;;
13795;SDS011;40911;51.552;9.874;2023-03-21T00:08:58;8.35;;;5.47;;
13795;SDS011;40911;51.552;9.874;2023-03-21T00:13:41;8.23;;;5.50;;
13795;SDS011;40911;51.552;9.874;2023-03-21T00:16:03;8.95;;;5.45;;
13795;SDS011;40911;51.552;9.874;2023-03-21T00:18:26;8.02;;;5.05;;
13795;SDS011;40911;51.552;9.874;2023-03-21T00:20:57;7.07;;;5.32;;
13795;SDS011;40911;51.552;9.874;2023-03-21T00:23:20;7.35;;;5.55;;
13795;SDS011;40911;51.552;9.874;2023-03-21T00:25:42;8.18;;;5.70;;
13795;SDS011;40911;51.552;9.874;2023-03-21T00:28:04;9.00;;;5.32;;
13795;SDS011;40911;51.552;9.874;2023-03-21T00:30:25;7.95;;;5.40;;
13795;SDS011;40911;51.552;9.874;2023-03-21T00:32:47;7.32;;;5.25;;
13795;SDS011;40911;51.552;9.874;2023-03-21T00:35:09;10.65;;;6.35;;
13795;SDS011;40911;51.552;9.874;2023-03-21T00:37:30;8.65;;;5.32;;
13795;SDS011;40911;51.552;9.874;2023-03-21T00:39:53;7.38;;;5.07;;
13795;SDS011;40911;51.552;9.874;2023-03-21T00:42:15;6.90;;;4.60;;
13795;SDS011;40911;51.552;9.874;2023-03-21T00:46:59;9.27;;;5.28;;
13795;SDS011;40911;51.552;9.874;2023-03-21T00:49:22;10.85;;;5.72;;
13795;SDS011;40911;51.552;9.874;2023-03-21T00:51:43;8.48;;;4.97;;
13795;SDS011;40911;51.552;9.874;2023-03-21T00:54:05;9.88;;;5.38;;
13795;SDS011;40911;51.552;9.874;2023-03-21T00:56:28;9.48;;;5.20;;
13795;SDS011;40911;51.552;9.874;2023-03-21T00:58:50;10.60;;;5.63;;
13795;SDS011;40911;51.552;9.874;2023-03-21T01:01:11;10.55;;;5.03;;
13795;SDS011;40911;51.552;9.874;2023-03-21T01:03:33;8.05;;;4.70;;
13795;SDS011;40911;51.552;9.874;2023-03-21T01:06:01;9.45;;;5.20;;
13795;SDS011;40911;51.552;9.874;2023-03-21T01:08:26;10.27;;;5.10;;
13795;SDS011;40911;51.552;9.874;2023-03-21T01:10:48;9.98;;;5.15;;
13795;SDS011;40911;51.552;9.874;2023-03-21T01:13:13;8.15;;;5.18;;
13795;SDS011;40911;51.552;9.874;2023-03-21T01:15:36;7.55;;;5.40;;
13795;SDS011;40911;51.552;9.874;2023-03-21T01:18:03;11.90;;;5.40;;
13795;SDS011;40911;51.552;9.874;2023-03-21T01:20:25;9.20;;;5.15;;
13795;SDS011;40911;51.552;9.874;2023-03-21T01:25:08;9.80;;;4.50;;
13795;SDS011;40911;51.552;9.874;2023-03-21T01:27:29;10.82;;;5.32;;
13795;SDS011;40911;51.552;9.874;2023-03-21T01:29:52;7.88;;;4.88;;
13795;SDS011;40911;51.552;9.874;2023-03-21T01:32:14;9.02;;;4.68;;
13795;SDS011;40911;51.552;9.874;2023-03-21T01:34:35;9.45;;;5.00;;
13795;SDS011;40911;51.552;9.874;2023-03-21T01:36:57;10.88;;;5.05;;
13795;SDS011;40911;51.552;9.874;2023-03-21T01:39:19;11.32;;;4.88;;
13795;SDS011;40911;51.552;9.874;2023-03-21T01:41:41;10.48;;;5.10;;
13795;SDS011;40911;51.552;9.874;2023-03-21T01:46:30;9.32;;;4.90;;
13795;SDS011;40911;51.552;9.874;2023-03-21T01:48:59;10.40;;;5.40;;
13795;SDS011;40911;51.552;9.874;2023-03-21T01:51:22;11.15;;;5.10;;
13795;SDS011;40911;51.552;9.874;2023-03-21T01:53:46;12.20;;;5.43;;
13795;SDS011;40911;51.552;9.874;2023-03-21T01:56:09;9.13;;;5.32;;
13795;SDS011;40911;51.552;9.874;2023-03-21T01:58:34;7.95;;;5.03;;
13795;SDS011;40911;51.552;9.874;2023-03-21T02:00:57;7.82;;;5.05;;
13795;SDS011;40911;51.552;9.874;2023-03-21T02:03:22;12.18;;;5.60;;
13795;SDS011;40911;51.552;9.874;2023-03-21T02:05:49;11.75;;;5.40;;
13795;SDS011;40911;51.552;9.874;2023-03-21T02:08:16;11.45;;;5.22;;
13795;SDS011;40911;51.552;9.874;2023-03-21T02:10:37;7.45;;;5.07;;
13795;SDS011;40911;51.552;9.874;2023-03-21T02:13:02;10.15;;;5.60;;
13795;SDS011;40911;51.552;9.874;2023-03-21T02:15:28;9.52;;;5.65;;
13795;SDS011;40911;51.552;9.874;2023-03-21T02:20:28;9.73;;;5.68;;
13795;SDS011;40911;51.552;9.874;2023-03-21T02:23:19;8.20;;;5.15;;
13795;SDS011;40911;51.552;9.874;2023-03-21T02:28:47;9.52;;;5.75;;
13795;SDS011;40911;51.552;9.874;2023-03-21T02:31:22;11.10;;;5.30;;
13795;SDS011;40911;51.552;9.874;2023-03-21T02:36:55;8.23;;;5.10;;
13795;SDS011;40911;51.552;9.874;2023-03-21T02:39:23;10.05;;;4.90;;
13795;SDS011;40911;51.552;9.874;2023-03-21T02:41:49;10.32;;;5.43;;
13795;SDS011;40911;51.552;9.874;2023-03-21T02:44:17;13.40;;;6.05;;
13795;SDS011;40911;51.552;9.874;2023-03-21T02:46:43;8.43;;;5.18;;
13795;SDS011;40911;51.552;9.874;2023-03-21T02:49:10;8.35;;;5.70;;
13795;SDS011;40911;51.552;9.874;2023-03-21T02:51:37;10.15;;;5.43;;
13795;SDS011;40911;51.552;9.874;2023-03-21T02:54:02;9.15;;;5.43;;
13795;SDS011;40911;51.552;9.874;2023-03-21T02:56:27;11.65;;;5.40;;
13795;SDS011;40911;51.552;9.874;2023-03-21T02:58:50;10.90;;;5.70;;
13795;SDS011;40911;51.552;9.874;2023-03-21T03:01:12;11.30;;;5.93;;
13795;SDS011;40911;51.552;9.874;2023-03-21T03:03:34;7.60;;;5.40;;
13795;SDS011;40911;51.552;9.874;2023-03-21T03:05:58;9.35;;;5.15;;
13795;SDS011;40911;51.552;9.874;2023-03-21T03:08:26;9.60;;;5.50;;
13795;SDS011;40911;51.552;9.874;2023-03-21T03:10:57;12.38;;;5.60;;
13795;SDS011;40911;51.552;9.874;2023-03-21T03:13:33;10.48;;;5.70;;
13795;SDS011;40911;51.552;9.874;2023-03-21T03:16:05;10.32;;;5.35;;
13795;SDS011;40911;51.552;9.874;2023-03-21T03:18:37;10.02;;;5.65;;
13795;SDS011;40911;51.552;9.874;2023-03-21T03:21:04;10.95;;;5.30;;
13795;SDS011;40911;51.552;9.874;2023-03-21T03:23:32;10.57;;;5.80;;
13795;SDS011;40911;51.552;9.874;2023-03-21T03:26:01;10.32;;;5.22;;
13795;SDS011;40911;51.552;9.874;2023-03-21T03:28:28;13.63;;;5.82;;
13795;SDS011;40911;51.552;9.874;2023-03-21T03:30:54;12.77;;;6.45;;
13795;SDS011;40911;51.552;9.874;2023-03-21T03:33:18;11.15;;;5.18;;
13795;SDS011;40911;51.552;9.874;2023-03-21T03:35:42;9.82;;;5.70;;
13795;SDS011;40911;51.552;9.874;2023-03-21T03:38:05;7.10;;;5.10;;
13795;SDS011;40911;51.552;9.874;2023-03-21T03:40:29;9.20;;;4.88;;
13795;SDS011;40911;51.552;9.874;2023-03-21T03:42:57;7.93;;;5.13;;
13795;SDS011;40911;51.552;9.874;2023-03-21T03:45:24;11.52;;;5.63;;
13795;SDS011;40911;51.552;9.874;2023-03-21T03:47:51;8.70;;;5.55;;
13795;SDS011;40911;51.552;9.874;2023-03-21T03:50:19;8.85;;;5.13;;
13795;SDS011;40911;51.552;9.874;2023-03-21T03:52:48;10.18;;;5.47;;
13795;SDS011;40911;51.552;9.874;2023-03-21T03:55:13;11.52;;;5.25;;
13795;SDS011;40911;51.552;9.874;2023-03-21T03:57:37;14.73;;;5.78;;
13795;SDS011;40911;51.552;9.874;2023-03-21T04:00:01;9.48;;;5.32;;
13795;SDS011;40911;51.552;9.874;2023-03-21T04:02:25;12.07;;;5.50;;
13795;SDS011;40911;51.552;9.874;2023-03-21T04:04:49;9.82;;;5.32;;
13795;SDS011;40911;51.552;9.874;2023-03-21T04:07:12;9.63;;;5.50;;
13795;SDS011;40911;51.552;9.874;2023-03-21T04:09:34;7.68;;;5.22;;
13795;SDS011;40911;51.552;9.874;2023-03-21T04:11:56;10.60;;;5.50;;
13795;SDS011;40911;51.552;9.874;2023-03-21T04:16:40;13.73;;;5.82;;
13795;SDS011;40911;51.552;9.874;2023-03-21T04:19:02;10.02;;;5.43;;
13795;SDS011;40911;51.552;9.874;2023-03-21T04:21:24;10.05;;;5.05;;
13795;SDS011;40911;51.552;9.874;2023-03-21T04:23:46;11.23;;;5.53;;
13795;SDS011;40911;51.552;9.874;2023-03-21T04:26:08;9.05;;;5.75;;
13795;SDS011;40911;51.552;9.874;2023-03-21T04:28:30;9.32;;;5.28;;
13795;SDS011;40911;51.552;9.874;2023-03-21T04:30:52;10.38;;;5.55;;
13795;SDS011;40911;51.552;9.874;2023-03-21T04:33:18;8.88;;;5.93;;
13795;SDS011;40911;51.552;9.874;2023-03-21T04:35:39;9.32;;;5.43;;
13795;SDS011;40911;51.552;9.874;2023-03-21T04:38:01;10.68;;;5.78;;
13795;SDS011;40911;51.552;9.874;2023-03-21T04:40:23;11.30;;;6.18;;
13795;SDS011;40911;51.552;9.874;2023-03-21T04:45:07;9.70;;;5.38;;
13795;SDS011;40911;51.552;9.874;2023-03-21T04:47:29;8.00;;;5.00;;
13795;SDS011;40911;51.552;9.874;2023-03-21T04:49:52;11.10;;;5.70;;
13795;SDS011;40911;51.552;9.874;2023-03-21T04:52:13;12.52;;;5.82;;
13795;SDS011;40911;51.552;9.874;2023-03-21T04:56:57;10.65;;;5.55;;
13795;SDS011;40911;51.552;9.874;2023-03-21T04:59:18;10.05;;;5.72;;
13795;SDS011;40911;51.552;9.874;2023-03-21T05:01:40;9.63;;;5.65;;
13795;SDS011;40911;51.552;9.874;2023-03-21T05:04:03;11.93;;;5.57;;
13795;SDS011;40911;51.552;9.874;2023-03-21T05:06:26;10.02;;;5.28;;
13795;SDS011;40911;51.552;9.874;2023-03-21T05:08:48;12.23;;;5.75;;
13795;SDS011;40911;51.552;9.874;2023-03-21T05:11:10;10.70;;;5.43;;
13795;SDS011;40911;51.552;9.874;2023-03-21T05:13:31;11.80;;;6.25;;
13795;SDS011;40911;51.552;9.874;2023-03-21T05:15:53;12.77;;;5.43;;
13795;SDS011;40911;51.552;9.874;2023-03-21T05:18:14;13.57;;;5.80;;
13795;SDS011;40911;51.552;9.874;2023-03-21T05:20:43;10.27;;;5.85;;
13795;SDS011;40911;51.552;9.874;2023-03-21T05:23:07;9.95;;;6.10;;
13795;SDS011;40911;51.552;9.874;2023-03-21T05:25:29;13.68;;;5.68;;
13795;SDS011;40911;51.552;9.874;2023-03-21T05:27:54;11.30;;;5.80;;
13795;SDS011;40911;51.552;9.874;2023-03-21T05:30:16;11.60;;;5.72;;
13795;SDS011;40911;51.552;9.874;2023-03-21T05:32:38;9.27;;;5.43;;
13795;SDS011;40911;51.552;9.874;2023-03-21T05:35:00;16.13;;;6.07;;
13795;SDS011;40911;51.552;9.874;2023-03-21T05:39:45;12.00;;;5.80;;
13795;SDS011;40911;51.552;9.874;2023-03-21T05:42:06;8.80;;;5.25;;
13795;SDS011;40911;51.552;9.874;2023-03-21T05:44:28;12.43;;;5.95;;
13795;SDS011;40911;51.552;9.874;2023-03-21T05:46:50;11.00;;;5.82;;
13795;SDS011;40911;51.552;9.874;2023-03-21T05:49:11;12.73;;;6.38;;
13795;SDS011;40911;51.552;9.874;2023-03-21T05:51:33;12.75;;;5.63;;
13795;SDS011;40911;51.552;9.874;2023-03-21T05:53:55;10.45;;;5.82;;
13795;SDS011;40911;51.552;9.874;2023-03-21T05:56:18;9.80;;;5.95;;
13795;SDS011;40911;51.552;9.874;2023-03-21T05:58:39;10.20;;;5.28;;
13795;SDS011;40911;51.552;9.874;2023-03-21T06:01:01;12.38;;;5.22;;
13795;SDS011;40911;51.552;9.874;2023-03-21T06:03:22;12.52;;;5.78;;
13795;SDS011;40911;51.552;9.874;2023-03-21T06:05:44;12.20;;;6.38;;
13795;SDS011;40911;51.552;9.874;2023-03-21T06:08:06;11.55;;;5.40;;
13795;SDS011;40911;51.552;9.874;2023-03-21T06:10:28;11.23;;;5.85;;
13795;SDS011;40911;51.552;9.874;2023-03-21T06:12:51;12.45;;;5.65;;
13795;SDS011;40911;51.552;9.874;2023-03-21T06:15:12;11.25;;;5.97;;
13795;SDS011;40911;51.552;9.874;2023-03-21T06:19:55;9.98;;;6.30;;
13795;SDS011;40911;51.552;9.874;2023-03-21T06:22:17;9.80;;;5.35;;
13795;SDS011;40911;51.552;9.874;2023-03-21T06:24:38;16.67;;;5.82;;
13795;SDS011;40911;51.552;9.874;2023-03-21T06:27:00;12.38;;;5.57;;
13795;SDS011;40911;51.552;9.874;2023-03-21T06:29:23;9.07;;;5.78;;
13795;SDS011;40911;51.552;9.874;2023-03-21T06:31:44;11.32;;;6.03;;
13795;SDS011;40911;51.552;9.874;2023-03-21T06:34:06;12.55;;;5.32;;
13795;SDS011;40911;51.552;9.874;2023-03-21T06:36:29;13.40;;;5.55;;
13795;SDS011;40911;51.552;9.874;2023-03-21T06:38:51;12.48;;;5.65;;
13795;SDS011;40911;51.552;9.874;2023-03-21T06:41:13;11.13;;;5.82;;
13795;SDS011;40911;51.552;9.874;2023-03-21T06:43:35;12.00;;;6.20;;
13795;SDS011;40911;51.552;9.874;2023-03-21T06:48:19;11.48;;;5.60;;
13795;SDS011;40911;51.552;9.874;2023-03-21T06:50:41;9.55;;;5.45;;
13795;SDS011;40911;51.552;9.874;2023-03-21T06:53:03;11.35;;;5.68;;
13795;SDS011;40911;51.552;9.874;2023-03-21T06:55:24;12.70;;;6.25;;
13795;SDS011;40911;51.552;9.874;2023-03-21T06:57:47;11.88;;;5.47;;
13795;SDS011;40911;51.552;9.874;2023-03-21T07:00:09;11.77;;;5.90;;
13795;SDS011;40911;51.552;9.874;2023-03-21T07:02:33;11.13;;;5.88;;
13795;SDS011;40911;51.552;9.874;2023-03-21T07:04:55;15.98;;;6.80;;
13795;SDS011;40911;51.552;9.874;2023-03-21T07:07:16;11.65;;;5.68;;
13795;SDS011;40911;51.552;9.874;2023-03-21T07:12:00;12.15;;;6.47;;
13795;SDS011;40911;51.552;9.874;2023-03-21T07:14:21;11.57;;;6.25;;
13795;SDS011;40911;51.552;9.874;2023-03-21T07:19:06;18.25;;;7.43;;
13795;SDS011;40911;51.552;9.874;2023-03-21T07:21:28;13.52;;;6.70;;
13795;SDS011;40911;51.552;9.874;2023-03-21T07:23:50;13.05;;;7.07;;
13795;SDS011;40911;51.552;9.874;2023-03-21T07:26:12;14.88;;;7.18;;
13795;SDS011;40911;51.552;9.874;2023-03-21T07:28:35;15.00;;;7.85;;
13795;SDS011;40911;51.552;9.874;2023-03-21T07:33:19;14.07;;;7.25;;
13795;SDS011;40911;51.552;9.874;2023-03-21T07:35:43;16.48;;;7.15;;
13795;SDS011;40911;51.552;9.874;2023-03-21T07:38:05;16.88;;;8.07;;
13795;SDS011;40911;51.552;9.874;2023-03-21T07:42:48;14.67;;;6.93;;
13795;SDS011;40911;51.552;9.874;2023-03-21T07:45:10;13.05;;;6.63;;
13795;SDS011;40911;51.552;9.874;2023-03-21T07:47:34;14.10;;;7.10;;
13795;SDS011;40911;51.552;9.874;2023-03-21T07:52:19;13.65;;;7.18;;
13795;SDS011;40911;51.552;9.874;2023-03-21T07:54:40;14.05;;;7.00;;
13795;SDS011;40911;51.552;9.874;2023-03-21T07:57:02;14.52;;;7.10;;
13795;SDS011;40911;51.552;9.874;2023-03-21T07:59:23;12.85;;;6.88;;
13795;SDS011;40911;51.552;9.874;2023-03-21T08:01:45;12.48;;;6.88;;
13795;SDS011;40911;51.552;9.874;2023-03-21T08:04:07;16.48;;;6.97;;
13795;SDS011;40911;51.552;9.874;2023-03-21T08:06:28;15.43;;;6.78;;
13795;SDS011;40911;51.552;9.874;2023-03-21T08:08:52;12.05;;;6.43;;
13795;SDS011;40911;51.552;9.874;2023-03-21T08:11:14;14.73;;;6.95;;
13795;SDS011;40911;51.552;9.874;2023-03-21T08:13:37;15.52;;;6.80;;
13795;SDS011;40911;51.552;9.874;2023-03-21T08:15:59;13.73;;;6.50;;
13795;SDS011;40911;51.552;9.874;2023-03-21T08:18:20;15.32;;;6.82;;
13795;SDS011;40911;51.552;9.874;2023-03-21T08:20:42;12.90;;;7.13;;
13795;SDS011;40911;51.552;9.874;2023-03-21T08:23:03;15.40;;;6.70;;
13795;SDS011;40911;51.552;9.874;2023-03-21T08:25:26;16.27;;;6.53;;
13795;SDS011;40911;51.552;9.874;2023-03-21T08:27:49;17.63;;;7.47;;
13795;SDS011;40911;51.552;9.874;2023-03-21T08:30:12;14.73;;;7.20;;
13795;SDS011;40911;51.552;9.874;2023-03-21T08:32:35;14.68;;;6.75;;
13795;SDS011;40911;51.552;9.874;2023-03-21T08:34:57;13.15;;;6.85;;
13795;SDS011;40911;51.552;9.874;2023-03-21T08:37:20;15.00;;;7.15;;
13795;SDS011;40911;51.552;9.874;2023-03-21T08:42:04;14.88;;;7.13;;
13795;SDS011;40911;51.552;9.874;2023-03-21T08:44:26;17.50;;;7.32;;
13795;SDS011;40911;51.552;9.874;2023-03-21T08:46:47;13.98;;;8.00;;
13795;SDS011;40911;51.552;9.874;2023-03-21T08:49:09;14.25;;;7.80;;
13795;SDS011;40911;51.552;9.874;2023-03-21T08:51:31;15.82;;;7.85;;
13795;SDS011;40911;51.552;9.874;2023-03-21T08:53:53;14.27;;;7.25;;
13795;SDS011;40911;51.552;9.874;2023-03-21T08:56:15;15.60;;;8.82;;
13795;SDS011;40911;51.552;9.874;2023-03-21T08:58:39;17.83;;;8.10;;
13795;SDS011;40911;51.552;9.874;2023-03-21T09:01:00;12.95;;;7.07;;
13795;SDS011;40911;51.552;9.874;2023-03-21T09:03:22;17.95;;;8.07;;
13795;SDS011;40911;51.552;9.874;2023-03-21T09:05:43;14.13;;;7.70;;
13795;SDS011;40911;51.552;9.874;2023-03-21T09:10:27;15.93;;;8.00;;
13795;SDS011;40911;51.552;9.874;2023-03-21T09:12:49;19.55;;;7.22;;
13795;SDS011;40911;51.552;9.874;2023-03-21T09:15:13;16.13;;;8.35;;
13795;SDS011;40911;51.552;9.874;2023-03-21T09:17:36;17.75;;;8.60;;
13795;SDS011;40911;51.552;9.874;2023-03-21T09:20:03;17.80;;;8.43;;
13795;SDS011;40911;51.552;9.874;2023-03-21T09:22:30;24.83;;;9.18;;
13795;SDS011;40911;51.552;9.874;2023-03-21T09:24:51;16.52;;;8.73;;
13795;SDS011;40911;51.552;9.874;2023-03-21T09:29:38;16.70;;;7.95;;
13795;SDS011;40911;51.552;9.874;2023-03-21T09:32:01;13.20;;;7.10;;
13795;SDS011;40911;51.552;9.874;2023-03-21T09:34:24;12.52;;;7.15;;
13795;SDS011;40911;51.552;9.874;2023-03-21T09:39:13;15.95;;;8.18;;
13795;SDS011;40911;51.552;9.874;2023-03-21T09:41:39;14.82;;;8.10;;
13795;SDS011;40911;51.552;9.874;2023-03-21T09:44:24;18.08;;;7.85;;
13795;SDS011;40911;51.552;9.874;2023-03-21T09:46:55;14.63;;;7.60;;
13795;SDS011;40911;51.552;9.874;2023-03-21T09:49:24;15.95;;;7.05;;
13795;SDS011;40911;51.552;9.874;2023-03-21T09:51:50;15.93;;;8.05;;
13795;SDS011;40911;51.552;9.874;2023-03-21T09:54:16;14.10;;;7.50;;
13795;SDS011;40911;51.552;9.874;2023-03-21T09:56:39;17.50;;;8.05;;
13795;SDS011;40911;51.552;9.874;2023-03-21T09:59:03;15.23;;;7.63;;
13795;SDS011;40911;51.552;9.874;2023-03-21T10:01:27;16.48;;;8.07;;
13795;SDS011;40911;51.552;9.874;2023-03-21T10:03:51;16.73;;;7.78;;
13795;SDS011;40911;51.552;9.874;2023-03-21T10:06:16;11.98;;;7.35;;
13795;SDS011;40911;51.552;9.874;2023-03-21T10:08:38;15.35;;;7.57;;
13795;SDS011;40911;51.552;9.874;2023-03-21T10:11:02;14.65;;;7.60;;
13795;SDS011;40911;51.552;9.874;2023-03-21T10:13:28;16.20;;;7.72;;
13795;SDS011;40911;51.552;9.874;2023-03-21T10:15:53;10.73;;;6.78;;
13795;SDS011;40911;51.552;9.874;2023-03-21T10:18:18;14.95;;;7.97;;
13795;SDS011;40911;51.552;9.874;2023-03-21T10:20:42;14.65;;;7.40;;
13795;SDS011;40911;51.552;9.874;2023-03-21T10:23:07;16.48;;;7.72;;
13795;SDS011;40911;51.552;9.874;2023-03-21T10:25:33;17.55;;;7.95;;
13795;SDS011;40911;51.552;9.874;2023-03-21T10:27:56;13.18;;;6.97;;
13795;SDS011;40911;51.552;9.874;2023-03-21T10:30:34;13.77;;;7.22;;
13795;SDS011;40911;51.552;9.874;2023-03-21T10:33:00;14.65;;;7.13;;
13795;SDS011;40911;51.552;9.874;2023-03-21T10:35:24;15.23;;;7.85;;
13795;SDS011;40911;51.552;9.874;2023-03-21T10:37:46;13.63;;;7.30;;
13795;SDS011;40911;51.552;9.874;2023-03-21T10:40:12;14.88;;;7.03;;
13795;SDS011;40911;51.552;9.874;2023-03-21T10:42:35;14.30;;;7.03;;
13795;SDS011;40911;51.552;9.874;2023-03-21T10:44:57;20.75;;;7.63;;
13795;SDS011;40911;51.552;9.874;2023-03-21T10:49:40;15.98;;;8.32;;
13795;SDS011;40911;51.552;9.874;2023-03-21T10:52:03;16.08;;;7.43;;
13795;SDS011;40911;51.552;9.874;2023-03-21T10:54:28;15.63;;;7.00;;
13795;SDS011;40911;51.552;9.874;2023-03-21T10:56:55;13.65;;;6.93;;
13795;SDS011;40911;51.552;9.874;2023-03-21T10:59:19;19.20;;;7.68;;
13795;SDS011;40911;51.552;9.874;2023-03-21T11:01:44;14.68;;;6.78;;
13795;SDS011;40911;51.552;9.874;2023-03-21T11:04:11;12.73;;;7.38;;
13795;SDS011;40911;51.552;9.874;2023-03-21T11:06:36;18.95;;;7.07;;
13795;SDS011;40911;51.552;9.874;2023-03-21T11:09:00;13.15;;;6.20;;
13795;SDS011;40911;51.552;9.874;2023-03-21T11:11:26;14.55;;;7.15;;
13795;SDS011;40911;51.552;9.874;2023-03-21T11:13:58;13.77;;;7.22;;
13795;SDS011;40911;51.552;9.874;2023-03-21T11:16:29;13.93;;;6.30;;
13795;SDS011;40911;51.552;9.874;2023-03-21T11:18:55;11.93;;;6.18;;
13795;SDS011;40911;51.552;9.874;2023-03-21T11:21:20;18.48;;;6.53;;
13795;SDS011;40911;51.552;9.874;2023-03-21T11:23:47;9.95;;;6.47;;
13795;SDS011;40911;51.552;9.874;2023-03-21T11:26:15;12.35;;;6.13;;
13795;SDS011;40911;51.552;9.874;2023-03-21T11:28:43;13.60;;;6.57;;
13795;SDS011;40911;51.552;9.874;2023-03-21T11:31:07;16.98;;;6.82;;
13795;SDS011;40911;51.552;9.874;2023-03-21T11:33:30;12.73;;;6.63;;
13795;SDS011;40911;51.552;9.874;2023-03-21T11:36:00;14.50;;;7.03;;
13795;SDS011;40911;51.552;9.874;2023-03-21T11:38:25;12.38;;;6.15;;
13795;SDS011;40911;51.552;9.874;2023-03-21T11:40:51;12.90;;;6.63;;
13795;SDS011;40911;51.552;9.874;2023-03-21T11:43:25;12.73;;;6.40;;
13795;SDS011;40911;51.552;9.874;2023-03-21T11:45:55;16.88;;;7.00;;
13795;SDS011;40911;51.552;9.874;2023-03-21T11:48:18;14.35;;;6.43;;
13795;SDS011;40911;51.552;9.874;2023-03-21T11:50:40;13.27;;;6.70;;
13795;SDS011;40911;51.552;9.874;2023-03-21T11:53:14;12.68;;;6.78;;
13795;SDS011;40911;51.552;9.874;2023-03-21T11:55:51;13.70;;;6.47;;
13795;SDS011;40911;51.552;9.874;2023-03-21T11:58:27;15.25;;;6.80;;
13795;SDS011;40911;51.552;9.874;2023-03-21T12:00:58;11.88;;;6.72;;
13795;SDS011;40911;51.552;9.874;2023-03-21T12:06:21;14.05;;;6.53;;
13795;SDS011;40911;51.552;9.874;2023-03-21T12:08:50;13.77;;;6.78;;
13795;SDS011;40911;51.552;9.874;2023-03-21T12:11:26;15.27;;;7.25;;
13795;SDS011;40911;51.552;9.874;2023-03-21T12:13:58;11.18;;;6.88;;
13795;SDS011;40911;51.552;9.874;2023-03-21T12:16:32;14.10;;;7.15;;
13795;SDS011;40911;51.552;9.874;2023-03-21T12:19:14;11.13;;;6.75;;
13795;SDS011;40911;51.552;9.874;2023-03-21T12:22:06;12.35;;;6.70;;
13795;SDS011;40911;51.552;9.874;2023-03-21T12:24:32;14.93;;;6.97;;
13795;SDS011;40911;51.552;9.874;2023-03-21T12:27:03;13.68;;;7.13;;
13795;SDS011;40911;51.552;9.874;2023-03-21T12:29:35;12.80;;;6.67;;
13795;SDS011;40911;51.552;9.874;2023-03-21T12:32:09;13.90;;;7.15;;
13795;SDS011;40911;51.552;9.874;2023-03-21T12:39:59;9.77;;;5.88;;
13795;SDS011;40911;51.552;9.874;2023-03-21T12:42:37;13.02;;;7.30;;
13795;SDS011;40911;51.552;9.874;2023-03-21T12:45:24;20.15;;;7.40;;
13795;SDS011;40911;51.552;9.874;2023-03-21T12:47:48;19.08;;;7.30;;
13795;SDS011;40911;51.552;9.874;2023-03-21T12:50:17;11.82;;;6.93;;
13795;SDS011;40911;51.552;9.874;2023-03-21T12:52:42;14.32;;;6.97;;
13795;SDS011;40911;51.552;9.874;2023-03-21T12:55:12;13.65;;;7.20;;
13795;SDS011;40911;51.552;9.874;2023-03-21T12:57:39;15.70;;;7.63;;
13795;SDS011;40911;51.552;9.874;2023-03-21T13:00:06;14.68;;;7.35;;
13795;SDS011;40911;51.552;9.874;2023-03-21T13:02:35;11.55;;;6.90;;
13795;SDS011;40911;51.552;9.874;2023-03-21T13:05:02;13.15;;;7.18;;
13795;SDS011;40911;51.552;9.874;2023-03-21T13:07:36;10.02;;;6.38;;
13795;SDS011;40911;51.552;9.874;2023-03-21T13:10:01;14.60;;;7.47;;
13795;SDS011;40911;51.552;9.874;2023-03-21T13:12:36;16.23;;;7.60;;
13795;SDS011;40911;51.552;9.874;2023-03-21T13:15:12;12.32;;;7.53;;
13795;SDS011;40911;51.552;9.874;2023-03-21T13:17:44;15.70;;;7.68;;
13795;SDS011;40911;51.552;9.874;2023-03-21T13:20:13;17.05;;;7.70;;
13795;SDS011;40911;51.552;9.874;2023-03-21T13:22:44;13.93;;;6.60;;
13795;SDS011;40911;51.552;9.874;2023-03-21T13:25:14;12.55;;;7.35;;
13795;SDS011;40911;51.552;9.874;2023-03-21T13:27:38;10.60;;;7.10;;
13795;SDS011;40911;51.552;9.874;2023-03-21T13:30:00;12.98;;;7.38;;
13795;SDS011;40911;51.552;9.874;2023-03-21T13:32:27;13.73;;;7.10;;
13795;SDS011;40911;51.552;9.874;2023-03-21T13:34:52;12.32;;;6.75;;
13795;SDS011;40911;51.552;9.874;2023-03-21T13:37:17;12.80;;;7.50;;
13795;SDS011;40911;51.552;9.874;2023-03-21T13:39:42;15.88;;;7.28;;
13795;SDS011;40911;51.552;9.874;2023-03-21T13:42:10;12.85;;;7.15;;
13795;SDS011;40911;51.552;9.874;2023-03-21T13:44:42;15.38;;;7.65;;
13795;SDS011;40911;51.552;9.874;2023-03-21T13:47:21;14.70;;;8.23;;
13795;SDS011;40911;51.552;9.874;2023-03-21T13:52:42;11.95;;;7.45;;
13795;SDS011;40911;51.552;9.874;2023-03-21T13:55:26;15.05;;;7.53;;
13795;SDS011;40911;51.552;9.874;2023-03-21T13:57:49;13.10;;;7.68;;
13795;SDS011;40911;51.552;9.874;2023-03-21T14:00:15;16.80;;;7.75;;
13795;SDS011;40911;51.552;9.874;2023-03-21T14:02:48;14.77;;;7.88;;
13795;SDS011;40911;51.552;9.874;2023-03-21T14:05:16;18.77;;;7.88;;
13795;SDS011;40911;51.552;9.874;2023-03-21T14:07:41;12.38;;;7.60;;
13795;SDS011;40911;51.552;9.874;2023-03-21T14:10:05;14.18;;;7.43;;
13795;SDS011;40911;51.552;9.874;2023-03-21T14:12:39;16.80;;;8.40;;
13795;SDS011;40911;51.552;9.874;2023-03-21T14:15:03;15.38;;;8.13;;
13795;SDS011;40911;51.552;9.874;2023-03-21T14:17:28;13.95;;;7.72;;
13795;SDS011;40911;51.552;9.874;2023-03-21T14:19:52;14.25;;;8.15;;
13795;SDS011;40911;51.552;9.874;2023-03-21T14:22:14;13.48;;;8.00;;
13795;SDS011;40911;51.552;9.874;2023-03-21T14:24:36;15.38;;;8.43;;
13795;SDS011;40911;51.552;9.874;2023-03-21T14:26:59;16.75;;;7.68;;
13795;SDS011;40911;51.552;9.874;2023-03-21T14:29:25;11.98;;;8.27;;
13795;SDS011;40911;51.552;9.874;2023-03-21T14:31:51;13.07;;;6.85;;
13795;SDS011;40911;51.552;9.874;2023-03-21T14:34:15;12.60;;;7.38;;
13795;SDS011;40911;51.552;9.874;2023-03-21T14:36:37;12.25;;;6.55;;
13795;SDS011;40911;51.552;9.874;2023-03-21T14:39:03;12.48;;;7.47;;
13795;SDS011;40911;51.552;9.874;2023-03-21T14:41:28;11.05;;;6.80;;
13795;SDS011;40911;51.552;9.874;2023-03-21T14:43:59;11.77;;;6.30;;
13795;SDS011;40911;51.552;9.874;2023-03-21T14:46:23;14.73;;;6.70;;
13795;SDS011;40911;51.552;9.874;2023-03-21T14:48:45;10.15;;;6.82;;
13795;SDS011;40911;51.552;9.874;2023-03-21T14:51:06;11.35;;;6.43;;
13795;SDS011;40911;51.552;9.874;2023-03-21T14:53:32;11.88;;;6.63;;
13795;SDS011;40911;51.552;9.874;2023-03-21T14:55:58;7.30;;;4.97;;
13795;SDS011;40911;51.552;9.874;2023-03-21T14:58:22;12.68;;;6.15;;
13795;SDS011;40911;51.552;9.874;2023-03-21T15:00:46;10.95;;;6.35;;
13795;SDS011;40911;51.552;9.874;2023-03-21T15:03:10;11.75;;;6.20;;
13795;SDS011;40911;51.552;9.874;2023-03-21T15:05:33;14.35;;;6.20;;
13795;SDS011;40911;51.552;9.874;2023-03-21T15:07:57;14.05;;;7.13;;
13795;SDS011;40911;51.552;9.874;2023-03-21T15:10:20;9.95;;;5.90;;
13795;SDS011;40911;51.552;9.874;2023-03-21T15:12:48;11.68;;;6.70;;
13795;SDS011;40911;51.552;9.874;2023-03-21T15:15:12;10.25;;;6.30;;
13795;SDS011;40911;51.552;9.874;2023-03-21T15:17:35;13.40;;;7.70;;
13795;SDS011;40911;51.552;9.874;2023-03-21T15:19:58;14.95;;;9.30;;
13795;SDS011;40911;51.552;9.874;2023-03-21T15:22:23;11.57;;;7.70;;
13795;SDS011;40911;51.552;9.874;2023-03-21T15:24:50;9.98;;;6.85;;
13795;SDS011;40911;51.552;9.874;2023-03-21T15:27:18;11.98;;;8.00;;
13795;SDS011;40911;51.552;9.874;2023-03-21T15:29:43;16.75;;;9.38;;
13795;SDS011;40911;51.552;9.874;2023-03-21T15:32:06;15.35;;;8.65;;
13795;SDS011;40911;51.552;9.874;2023-03-21T15:34:32;17.73;;;10.13;;
13795;SDS011;40911;51.552;9.874;2023-03-21T15:36:56;18.00;;;10.15;;